sensor_id;sensor_type;location;lat;lon;timestamp;temperature;humidity
19799;DHT22;10059;59.850;10.454;2023-07-31T00:01:20;16.00;99.90
19799;DHT22;10059;59.850;10.454;2023-07-31T00:03:47;15.90;99.90
19799;DHT22;10059;59.850;10.454;2023-07-31T00:06:13;16.10;99.90
19799;DHT22;10059;59.850;10.454;2023-07-31T00:08:40;16.10;99.90
19799;DHT22;10059;59.850;10.454;2023-07-31T00:11:07;16.20;99.90
19799;DHT22;10059;59.850;10.454;2023-07-31T00:13:35;16.10;99.90
19799;DHT22;10059;59.850;10.454;2023-07-31T00:16:02;16.20;99.90
19799;DHT22;10059;59.850;10.454;2023-07-31T00:18:29;16.10;99.90
19799;DHT22;10059;59.850;10.454;2023-07-31T00:20:56;16.20;99.90
19799;DHT22;10059;59.850;10.454;2023-07-31T00:23:23;16.20;99.90
19799;DHT22;10059;59.850;10.454;2023-07-31T00:25:50;16.10;99.90
19799;DHT22;10059;59.850;10.454;2023-07-31T00:28:16;16.10;99.90
19799;DHT22;10059;59.850;10.454;2023-07-31T00:30:45;16.10;99.90
19799;DHT22;10059;59.850;10.454;2023-07-31T00:33:12;16.10;99.90
19799;DHT22;10059;59.850;10.454;2023-07-31T00:35:38;16.00;99.90
19799;DHT22;10059;59.850;10.454;2023-07-31T00:38:05;16.10;99.90
19799;DHT22;10059;59.850;10.454;2023-07-31T00:40:35;16.30;99.90
19799;DHT22;10059;59.850;10.454;2023-07-31T00:43:02;16.20;99.90
19799;DHT22;10059;59.850;10.454;2023-07-31T00:45:29;16.20;99.90
19799;DHT22;10059;59.850;10.454;2023-07-31T00:47:58;16.10;99.90
19799;DHT22;10059;59.850;10.454;2023-07-31T00:50:25;16.30;99.90
19799;DHT22;10059;59.850;10.454;2023-07-31T00:52:53;16.40;99.90
19799;DHT22;10059;59.850;10.454;2023-07-31T00:55:19;16.40;99.90
19799;DHT22;10059;59.850;10.454;2023-07-31T00:57:48;16.40;99.90
19799;DHT22;10059;59.850;10.454;2023-07-31T01:00:15;16.30;99.90
19799;DHT22;10059;59.850;10.454;2023-07-31T01:02:42;16.40;99.90
19799;DHT22;10059;59.850;10.454;2023-07-31T01:05:11;16.30;99.90
19799;DHT22;10059;59.850;10.454;2023-07-31T01:07:44;16.30;99.90
19799;DHT22;10059;59.850;10.454;2023-07-31T01:10:16;16.10;99.90
19799;DHT22;10059;59.850;10.454;2023-07-31T01:12:45;16.20;99.90
19799;DHT22;10059;59.850;10.454;2023-07-31T01:15:12;16.20;99.90
19799;DHT22;10059;59.850;10.454;2023-07-31T01:17:41;16.20;99.90
19799;DHT22;10059;59.850;10.454;2023-07-31T01:20:12;16.20;99.90
19799;DHT22;10059;59.850;10.454;2023-07-31T01:22:54;16.10;99.90
19799;DHT22;10059;59.850;10.454;2023-07-31T01:25:55;15.90;99.90
19799;DHT22;10059;59.850;10.454;2023-07-31T01:28:25;15.90;99.90
19799;DHT22;10059;59.850;10.454;2023-07-31T01:30:55;16.00;99.90
19799;DHT22;10059;59.850;10.454;2023-07-31T01:33:25;16.10;99.90
19799;DHT22;10059;59.850;10.454;2023-07-31T01:35:52;16.10;99.90
19799;DHT22;10059;59.850;10.454;2023-07-31T01:38:21;16.10;99.90
19799;DHT22;10059;59.850;10.454;2023-07-31T01:40:51;16.20;99.90
19799;DHT22;10059;59.850;10.454;2023-07-31T01:43:20;16.20;99.90
19799;DHT22;10059;59.850;10.454;2023-07-31T01:45:47;16.20;99.90
19799;DHT22;10059;59.850;10.454;2023-07-31T01:48:13;16.20;99.90
19799;DHT22;10059;59.850;10.454;2023-07-31T01:50:40;16.20;99.90
19799;DHT22;10059;59.850;10.454;2023-07-31T01:53:07;16.20;99.90
19799;DHT22;10059;59.850;10.454;2023-07-31T01:55:34;16.20;99.90
19799;DHT22;10059;59.850;10.454;2023-07-31T01:58:01;16.20;99.90
19799;DHT22;10059;59.850;10.454;2023-07-31T02:00:29;16.30;99.90
19799;DHT22;10059;59.850;10.454;2023-07-31T02:02:56;16.30;99.90
19799;DHT22;10059;59.850;10.454;2023-07-31T02:05:22;16.00;99.90
19799;DHT22;10059;59.850;10.454;2023-07-31T02:07:49;16.00;99.90
19799;DHT22;10059;59.850;10.454;2023-07-31T02:10:16;16.00;99.90
19799;DHT22;10059;59.850;10.454;2023-07-31T02:12:43;16.10;99.90
19799;DHT22;10059;59.850;10.454;2023-07-31T02:15:10;16.10;99.90
19799;DHT22;10059;59.850;10.454;2023-07-31T02:17:38;16.00;99.90
19799;DHT22;10059;59.850;10.454;2023-07-31T02:20:06;16.10;99.90
19799;DHT22;10059;59.850;10.454;2023-07-31T02:22:33;16.10;99.90
19799;DHT22;10059;59.850;10.454;2023-07-31T02:24:59;16.10;99.90
19799;DHT22;10059;59.850;10.454;2023-07-31T02:27:26;16.00;99.90
19799;DHT22;10059;59.850;10.454;2023-07-31T02:29:53;16.00;99.90
19799;DHT22;10059;59.850;10.454;2023-07-31T02:32:20;16.00;99.90
19799;DHT22;10059;59.850;10.454;2023-07-31T02:34:49;16.00;99.90
19799;DHT22;10059;59.850;10.454;2023-07-31T02:37:15;15.90;99.90
19799;DHT22;10059;59.850;10.454;2023-07-31T02:39:42;16.00;99.90
19799;DHT22;10059;59.850;10.454;2023-07-31T02:42:09;15.90;99.90
19799;DHT22;10059;59.850;10.454;2023-07-31T02:44:36;15.90;99.90
19799;DHT22;10059;59.850;10.454;2023-07-31T02:47:03;15.90;99.90
19799;DHT22;10059;59.850;10.454;2023-07-31T02:49:30;16.00;99.90
19799;DHT22;10059;59.850;10.454;2023-07-31T02:51:58;16.00;99.90
19799;DHT22;10059;59.850;10.454;2023-07-31T02:54:25;16.00;99.90
19799;DHT22;10059;59.850;10.454;2023-07-31T02:56:52;15.80;99.90
19799;DHT22;10059;59.850;10.454;2023-07-31T02:59:20;15.70;99.90
19799;DHT22;10059;59.850;10.454;2023-07-31T03:01:47;15.80;99.90
19799;DHT22;10059;59.850;10.454;2023-07-31T03:04:14;15.90;99.90
19799;DHT22;10059;59.850;10.454;2023-07-31T03:06:41;15.90;99.90
19799;DHT22;10059;59.850;10.454;2023-07-31T03:09:09;15.90;99.90
19799;DHT22;10059;59.850;10.454;2023-07-31T03:11:36;15.80;99.90
19799;DHT22;10059;59.850;10.454;2023-07-31T03:14:02;15.80;99.90
19799;DHT22;10059;59.850;10.454;2023-07-31T03:16:29;15.90;99.90
19799;DHT22;10059;59.850;10.454;2023-07-31T03:18:56;15.90;99.90
19799;DHT22;10059;59.850;10.454;2023-07-31T03:21:23;15.80;99.90
19799;DHT22;10059;59.850;10.454;2023-07-31T03:23:50;15.80;99.90
19799;DHT22;10059;59.850;10.454;2023-07-31T03:26:18;16.00;99.90
19799;DHT22;10059;59.850;10.454;2023-07-31T03:28:45;16.00;99.90
19799;DHT22;10059;59.850;10.454;2023-07-31T03:31:12;15.90;99.90
19799;DHT22;10059;59.850;10.454;2023-07-31T03:33:38;15.90;99.90
19799;DHT22;10059;59.850;10.454;2023-07-31T03:36:05;15.90;99.90
19799;DHT22;10059;59.850;10.454;2023-07-31T03:38:33;15.80;99.90
19799;DHT22;10059;59.850;10.454;2023-07-31T03:41:00;15.80;99.90
19799;DHT22;10059;59.850;10.454;2023-07-31T03:43:29;15.80;99.90
19799;DHT22;10059;59.850;10.454;2023-07-31T03:45:56;15.80;99.90
19799;DHT22;10059;59.850;10.454;2023-07-31T03:48:23;15.80;99.90
19799;DHT22;10059;59.850;10.454;2023-07-31T03:50:49;15.90;99.90
19799;DHT22;10059;59.850;10.454;2023-07-31T03:53:16;16.00;99.90
19799;DHT22;10059;59.850;10.454;2023-07-31T03:55:43;16.00;99.90
19799;DHT22;10059;59.850;10.454;2023-07-31T03:58:10;16.00;99.90
19799;DHT22;10059;59.850;10.454;2023-07-31T04:00:39;15.90;99.90
19799;DHT22;10059;59.850;10.454;2023-07-31T04:03:06;15.90;99.90
19799;DHT22;10059;59.850;10.454;2023-07-31T04:05:33;15.90;99.90
19799;DHT22;10059;59.850;10.454;2023-07-31T04:08:00;15.80;99.90
19799;DHT22;10059;59.850;10.454;2023-07-31T04:10:26;15.90;99.90
19799;DHT22;10059;59.850;10.454;2023-07-31T04:12:54;15.90;99.90
19799;DHT22;10059;59.850;10.454;2023-07-31T04:15:20;15.90;99.90
19799;DHT22;10059;59.850;10.454;2023-07-31T04:17:48;16.00;99.90
19799;DHT22;10059;59.850;10.454;2023-07-31T04:20:15;16.10;99.90
19799;DHT22;10059;59.850;10.454;2023-07-31T04:22:42;16.10;99.90
19799;DHT22;10059;59.850;10.454;2023-07-31T04:25:09;16.00;99.90
19799;DHT22;10059;59.850;10.454;2023-07-31T04:27:36;16.00;99.90
19799;DHT22;10059;59.850;10.454;2023-07-31T04:30:04;16.00;99.90
19799;DHT22;10059;59.850;10.454;2023-07-31T04:32:31;16.10;99.90
19799;DHT22;10059;59.850;10.454;2023-07-31T04:34:59;16.20;99.90
19799;DHT22;10059;59.850;10.454;2023-07-31T04:37:26;16.10;99.90
19799;DHT22;10059;59.850;10.454;2023-07-31T04:39:52;16.20;99.90
19799;DHT22;10059;59.850;10.454;2023-07-31T04:42:19;16.20;99.90
19799;DHT22;10059;59.850;10.454;2023-07-31T04:44:46;16.20;99.90
19799;DHT22;10059;59.850;10.454;2023-07-31T04:47:13;16.20;99.90
19799;DHT22;10059;59.850;10.454;2023-07-31T04:49:40;16.20;99.90
19799;DHT22;10059;59.850;10.454;2023-07-31T04:52:08;16.40;99.90
19799;DHT22;10059;59.850;10.454;2023-07-31T04:54:35;16.40;99.90
19799;DHT22;10059;59.850;10.454;2023-07-31T04:57:02;16.30;99.90
19799;DHT22;10059;59.850;10.454;2023-07-31T04:59:28;16.40;99.90
19799;DHT22;10059;59.850;10.454;2023-07-31T05:01:57;16.50;99.90
19799;DHT22;10059;59.850;10.454;2023-07-31T05:04:23;16.70;99.90
19799;DHT22;10059;59.850;10.454;2023-07-31T05:06:50;16.50;99.90
19799;DHT22;10059;59.850;10.454;2023-07-31T05:09:18;16.30;99.90
19799;DHT22;10059;59.850;10.454;2023-07-31T05:11:45;16.60;99.90
19799;DHT22;10059;59.850;10.454;2023-07-31T05:14:12;16.70;99.90
19799;DHT22;10059;59.850;10.454;2023-07-31T05:16:39;16.80;99.90
19799;DHT22;10059;59.850;10.454;2023-07-31T05:19:06;16.80;99.90
19799;DHT22;10059;59.850;10.454;2023-07-31T05:21:33;16.70;99.90
19799;DHT22;10059;59.850;10.454;2023-07-31T05:24:00;16.90;99.90
19799;DHT22;10059;59.850;10.454;2023-07-31T05:26:28;17.00;99.90
19799;DHT22;10059;59.850;10.454;2023-07-31T05:28:55;17.00;99.90
19799;DHT22;10059;59.850;10.454;2023-07-31T05:31:22;17.00;99.90
19799;DHT22;10059;59.850;10.454;2023-07-31T05:33:49;17.10;99.90
19799;DHT22;10059;59.850;10.454;2023-07-31T05:36:17;16.90;99.90
19799;DHT22;10059;59.850;10.454;2023-07-31T05:38:44;16.70;99.90
19799;DHT22;10059;59.850;10.454;2023-07-31T05:41:11;16.70;99.90
19799;DHT22;10059;59.850;10.454;2023-07-31T05:43:39;16.40;99.90
19799;DHT22;10059;59.850;10.454;2023-07-31T05:46:07;16.40;99.90
19799;DHT22;10059;59.850;10.454;2023-07-31T05:48:34;16.50;99.90
19799;DHT22;10059;59.850;10.454;2023-07-31T05:51:01;16.60;99.90
19799;DHT22;10059;59.850;10.454;2023-07-31T05:53:28;16.70;99.90
19799;DHT22;10059;59.850;10.454;2023-07-31T05:55:55;16.80;99.90
19799;DHT22;10059;59.850;10.454;2023-07-31T05:58:22;16.90;99.90
19799;DHT22;10059;59.850;10.454;2023-07-31T06:00:50;17.00;99.90
19799;DHT22;10059;59.850;10.454;2023-07-31T06:03:17;17.00;99.90
19799;DHT22;10059;59.850;10.454;2023-07-31T06:05:44;17.00;99.90
19799;DHT22;10059;59.850;10.454;2023-07-31T06:08:11;17.10;99.90
19799;DHT22;10059;59.850;10.454;2023-07-31T06:10:37;17.00;99.90
19799;DHT22;10059;59.850;10.454;2023-07-31T06:13:04;17.00;99.90
19799;DHT22;10059;59.850;10.454;2023-07-31T06:15:31;16.90;99.90
19799;DHT22;10059;59.850;10.454;2023-07-31T06:17:59;16.90;99.90
19799;DHT22;10059;59.850;10.454;2023-07-31T06:20:27;16.80;99.90
19799;DHT22;10059;59.850;10.454;2023-07-31T06:22:54;16.90;99.90
19799;DHT22;10059;59.850;10.454;2023-07-31T06:25:21;16.90;99.90
19799;DHT22;10059;59.850;10.454;2023-07-31T06:27:48;17.10;99.90
19799;DHT22;10059;59.850;10.454;2023-07-31T06:30:15;17.20;99.90
19799;DHT22;10059;59.850;10.454;2023-07-31T06:32:42;17.20;99.90
19799;DHT22;10059;59.850;10.454;2023-07-31T06:35:10;17.30;99.90
19799;DHT22;10059;59.850;10.454;2023-07-31T06:37:37;17.60;99.90
19799;DHT22;10059;59.850;10.454;2023-07-31T06:40:06;17.60;99.90
19799;DHT22;10059;59.850;10.454;2023-07-31T06:42:34;18.00;99.90
19799;DHT22;10059;59.850;10.454;2023-07-31T06:45:01;18.30;99.90
19799;DHT22;10059;59.850;10.454;2023-07-31T06:47:28;18.10;99.90
19799;DHT22;10059;59.850;10.454;2023-07-31T06:49:56;18.30;99.90
19799;DHT22;10059;59.850;10.454;2023-07-31T06:52:24;18.30;99.90
19799;DHT22;10059;59.850;10.454;2023-07-31T06:55:01;18.00;99.90
19799;DHT22;10059;59.850;10.454;2023-07-31T06:57:28;18.00;99.90
19799;DHT22;10059;59.850;10.454;2023-07-31T06:59:55;18.00;99.90
19799;DHT22;10059;59.850;10.454;2023-07-31T07:02:22;17.50;99.90
19799;DHT22;10059;59.850;10.454;2023-07-31T07:04:49;17.50;99.90
19799;DHT22;10059;59.850;10.454;2023-07-31T07:07:17;17.50;99.90
19799;DHT22;10059;59.850;10.454;2023-07-31T07:09:45;17.40;99.90
19799;DHT22;10059;59.850;10.454;2023-07-31T07:12:12;17.40;99.90
19799;DHT22;10059;59.850;10.454;2023-07-31T07:14:38;17.50;99.90
19799;DHT22;10059;59.850;10.454;2023-07-31T07:17:05;17.90;99.90
19799;DHT22;10059;59.850;10.454;2023-07-31T07:19:32;18.00;99.90
19799;DHT22;10059;59.850;10.454;2023-07-31T07:21:59;18.10;99.90
19799;DHT22;10059;59.850;10.454;2023-07-31T07:24:27;18.20;99.90
19799;DHT22;10059;59.850;10.454;2023-07-31T07:26:55;18.40;99.90
19799;DHT22;10059;59.850;10.454;2023-07-31T07:29:22;17.80;99.90
19799;DHT22;10059;59.850;10.454;2023-07-31T07:31:49;17.70;99.90
19799;DHT22;10059;59.850;10.454;2023-07-31T07:34:16;17.60;99.90
19799;DHT22;10059;59.850;10.454;2023-07-31T07:36:43;17.70;99.90
19799;DHT22;10059;59.850;10.454;2023-07-31T07:39:10;18.00;99.90
19799;DHT22;10059;59.850;10.454;2023-07-31T07:41:37;18.10;99.90
19799;DHT22;10059;59.850;10.454;2023-07-31T07:44:06;18.20;99.90
19799;DHT22;10059;59.850;10.454;2023-07-31T07:46:33;17.90;99.90
19799;DHT22;10059;59.850;10.454;2023-07-31T07:49:00;17.80;99.90
19799;DHT22;10059;59.850;10.454;2023-07-31T07:51:26;17.80;99.90
19799;DHT22;10059;59.850;10.454;2023-07-31T07:53:55;18.20;99.90
19799;DHT22;10059;59.850;10.454;2023-07-31T07:56:23;18.20;99.90
19799;DHT22;10059;59.850;10.454;2023-07-31T07:58:50;18.50;99.90
19799;DHT22;10059;59.850;10.454;2023-07-31T08:01:19;18.60;99.90
19799;DHT22;10059;59.850;10.454;2023-07-31T08:03:46;18.70;99.90
19799;DHT22;10059;59.850;10.454;2023-07-31T08:06:14;19.00;99.90
19799;DHT22;10059;59.850;10.454;2023-07-31T08:08:41;20.10;99.90
19799;DHT22;10059;59.850;10.454;2023-07-31T08:11:08;20.20;99.90
19799;DHT22;10059;59.850;10.454;2023-07-31T08:13:34;20.20;99.90
19799;DHT22;10059;59.850;10.454;2023-07-31T08:16:02;20.90;99.90
19799;DHT22;10059;59.850;10.454;2023-07-31T08:18:31;20.60;99.90
19799;DHT22;10059;59.850;10.454;2023-07-31T08:20:57;19.90;99.90
19799;DHT22;10059;59.850;10.454;2023-07-31T08:23:24;20.00;99.90
19799;DHT22;10059;59.850;10.454;2023-07-31T08:25:51;19.50;99.90
19799;DHT22;10059;59.850;10.454;2023-07-31T08:28:18;19.70;99.90
19799;DHT22;10059;59.850;10.454;2023-07-31T08:30:45;20.10;99.90
19799;DHT22;10059;59.850;10.454;2023-07-31T08:33:12;20.40;99.90
19799;DHT22;10059;59.850;10.454;2023-07-31T08:35:40;20.90;99.90
19799;DHT22;10059;59.850;10.454;2023-07-31T08:38:07;21.40;99.90
19799;DHT22;10059;59.850;10.454;2023-07-31T08:40:36;21.20;99.90
19799;DHT22;10059;59.850;10.454;2023-07-31T08:43:02;20.80;99.90
19799;DHT22;10059;59.850;10.454;2023-07-31T08:45:30;20.50;99.90
19799;DHT22;10059;59.850;10.454;2023-07-31T08:47:57;20.30;99.90
19799;DHT22;10059;59.850;10.454;2023-07-31T08:50:25;20.70;99.90
19799;DHT22;10059;59.850;10.454;2023-07-31T08:52:54;20.30;99.90
19799;DHT22;10059;59.850;10.454;2023-07-31T08:55:21;20.60;99.90
19799;DHT22;10059;59.850;10.454;2023-07-31T08:57:51;20.80;99.90
19799;DHT22;10059;59.850;10.454;2023-07-31T09:00:19;20.60;99.90
19799;DHT22;10059;59.850;10.454;2023-07-31T09:02:54;20.40;99.90
19799;DHT22;10059;59.850;10.454;2023-07-31T09:05:23;19.70;99.90
19799;DHT22;10059;59.850;10.454;2023-07-31T09:07:50;19.30;99.90
19799;DHT22;10059;59.850;10.454;2023-07-31T09:10:19;19.20;99.90
19799;DHT22;10059;59.850;10.454;2023-07-31T09:12:46;18.90;99.90
19799;DHT22;10059;59.850;10.454;2023-07-31T09:15:14;18.90;99.90
19799;DHT22;10059;59.850;10.454;2023-07-31T09:17:41;18.90;99.90
19799;DHT22;10059;59.850;10.454;2023-07-31T09:20:14;19.10;99.90
19799;DHT22;10059;59.850;10.454;2023-07-31T09:22:41;19.20;99.90
19799;DHT22;10059;59.850;10.454;2023-07-31T09:25:16;18.70;99.90
19799;DHT22;10059;59.850;10.454;2023-07-31T09:27:49;18.90;99.90
19799;DHT22;10059;59.850;10.454;2023-07-31T09:30:17;19.00;99.90
19799;DHT22;10059;59.850;10.454;2023-07-31T09:32:45;19.00;99.90
19799;DHT22;10059;59.850;10.454;2023-07-31T09:35:27;19.00;99.90
19799;DHT22;10059;59.850;10.454;2023-07-31T09:37:55;18.60;99.90
19799;DHT22;10059;59.850;10.454;2023-07-31T09:40:28;18.60;99.90
19799;DHT22;10059;59.850;10.454;2023-07-31T09:42:59;18.10;99.90
19799;DHT22;10059;59.850;10.454;2023-07-31T09:45:27;17.70;99.90
19799;DHT22;10059;59.850;10.454;2023-07-31T09:47:54;17.80;99.90
19799;DHT22;10059;59.850;10.454;2023-07-31T09:50:22;18.00;99.90
19799;DHT22;10059;59.850;10.454;2023-07-31T09:52:50;18.30;99.90
19799;DHT22;10059;59.850;10.454;2023-07-31T09:55:17;18.30;99.90
19799;DHT22;10059;59.850;10.454;2023-07-31T09:57:45;18.70;99.90
19799;DHT22;10059;59.850;10.454;2023-07-31T10:00:15;18.80;99.90
19799;DHT22;10059;59.850;10.454;2023-07-31T10:02:45;18.60;99.90
19799;DHT22;10059;59.850;10.454;2023-07-31T10:05:13;18.70;99.90
19799;DHT22;10059;59.850;10.454;2023-07-31T10:07:42;18.30;99.90
19799;DHT22;10059;59.850;10.454;2023-07-31T10:10:10;18.60;99.90
19799;DHT22;10059;59.850;10.454;2023-07-31T10:12:38;18.70;99.90
19799;DHT22;10059;59.850;10.454;2023-07-31T10:15:06;18.40;99.90
19799;DHT22;10059;59.850;10.454;2023-07-31T10:17:35;18.40;99.90
19799;DHT22;10059;59.850;10.454;2023-07-31T10:20:03;18.80;99.90
19799;DHT22;10059;59.850;10.454;2023-07-31T10:22:31;19.00;99.90
19799;DHT22;10059;59.850;10.454;2023-07-31T10:24:59;18.60;99.90
19799;DHT22;10059;59.850;10.454;2023-07-31T10:27:26;18.80;99.90
19799;DHT22;10059;59.850;10.454;2023-07-31T10:29:55;18.60;99.90
19799;DHT22;10059;59.850;10.454;2023-07-31T10:32:24;18.60;99.90
19799;DHT22;10059;59.850;10.454;2023-07-31T10:34:52;19.20;99.90
19799;DHT22;10059;59.850;10.454;2023-07-31T10:37:24;19.60;99.90
19799;DHT22;10059;59.850;10.454;2023-07-31T10:40:00;19.60;99.90
19799;DHT22;10059;59.850;10.454;2023-07-31T10:42:31;19.50;99.90
19799;DHT22;10059;59.850;10.454;2023-07-31T10:45:00;19.50;99.90
19799;DHT22;10059;59.850;10.454;2023-07-31T10:47:27;19.60;99.90
19799;DHT22;10059;59.850;10.454;2023-07-31T10:50:20;20.40;99.90
19799;DHT22;10059;59.850;10.454;2023-07-31T10:52:48;21.50;99.90
19799;DHT22;10059;59.850;10.454;2023-07-31T10:55:30;21.50;99.90
19799;DHT22;10059;59.850;10.454;2023-07-31T10:58:06;21.70;99.90
19799;DHT22;10059;59.850;10.454;2023-07-31T11:00:34;21.10;99.90
19799;DHT22;10059;59.850;10.454;2023-07-31T11:03:04;22.00;99.90
19799;DHT22;10059;59.850;10.454;2023-07-31T11:05:47;22.30;99.90
19799;DHT22;10059;59.850;10.454;2023-07-31T11:08:17;22.20;99.90
19799;DHT22;10059;59.850;10.454;2023-07-31T11:10:45;21.70;99.90
19799;DHT22;10059;59.850;10.454;2023-07-31T11:13:13;21.00;99.90
19799;DHT22;10059;59.850;10.454;2023-07-31T11:15:39;20.90;99.90
19799;DHT22;10059;59.850;10.454;2023-07-31T11:18:06;21.00;99.90
19799;DHT22;10059;59.850;10.454;2023-07-31T11:20:37;21.40;99.90
19799;DHT22;10059;59.850;10.454;2023-07-31T11:23:07;21.50;99.90
19799;DHT22;10059;59.850;10.454;2023-07-31T11:25:35;21.70;99.90
19799;DHT22;10059;59.850;10.454;2023-07-31T11:28:04;21.30;99.90
19799;DHT22;10059;59.850;10.454;2023-07-31T11:30:32;21.30;99.90
19799;DHT22;10059;59.850;10.454;2023-07-31T11:33:00;21.10;99.90
19799;DHT22;10059;59.850;10.454;2023-07-31T11:35:28;21.90;99.90
19799;DHT22;10059;59.850;10.454;2023-07-31T11:37:55;21.80;99.90
19799;DHT22;10059;59.850;10.454;2023-07-31T11:40:23;21.10;99.90
19799;DHT22;10059;59.850;10.454;2023-07-31T11:42:55;20.70;99.90
19799;DHT22;10059;59.850;10.454;2023-07-31T11:45:24;20.40;99.90
19799;DHT22;10059;59.850;10.454;2023-07-31T11:47:52;20.10;99.90
19799;DHT22;10059;59.850;10.454;2023-07-31T11:50:19;19.90;99.90
19799;DHT22;10059;59.850;10.454;2023-07-31T11:52:46;19.80;99.90
19799;DHT22;10059;59.850;10.454;2023-07-31T11:55:16;19.60;99.90
19799;DHT22;10059;59.850;10.454;2023-07-31T11:57:45;19.80;99.90
19799;DHT22;10059;59.850;10.454;2023-07-31T12:00:14;20.30;99.90
19799;DHT22;10059;59.850;10.454;2023-07-31T12:02:41;20.20;99.90
19799;DHT22;10059;59.850;10.454;2023-07-31T12:05:11;19.80;99.90
19799;DHT22;10059;59.850;10.454;2023-07-31T12:07:46;19.40;99.90
19799;DHT22;10059;59.850;10.454;2023-07-31T12:10:26;20.00;99.90
19799;DHT22;10059;59.850;10.454;2023-07-31T12:13:00;20.70;99.90
19799;DHT22;10059;59.850;10.454;2023-07-31T12:15:34;21.70;99.90
19799;DHT22;10059;59.850;10.454;2023-07-31T12:18:05;22.30;99.90
19799;DHT22;10059;59.850;10.454;2023-07-31T12:20:33;22.40;99.90
19799;DHT22;10059;59.850;10.454;2023-07-31T12:23:00;22.10;99.90
19799;DHT22;10059;59.850;10.454;2023-07-31T12:25:32;22.20;99.90
19799;DHT22;10059;59.850;10.454;2023-07-31T12:28:05;21.90;99.90
19799;DHT22;10059;59.850;10.454;2023-07-31T12:30:37;22.30;99.90
19799;DHT22;10059;59.850;10.454;2023-07-31T12:33:05;22.10;99.90
19799;DHT22;10059;59.850;10.454;2023-07-31T12:35:36;22.70;99.90
19799;DHT22;10059;59.850;10.454;2023-07-31T12:38:03;22.80;99.90
19799;DHT22;10059;59.850;10.454;2023-07-31T12:40:30;22.40;99.90
19799;DHT22;10059;59.850;10.454;2023-07-31T12:42:57;22.40;99.90
19799;DHT22;10059;59.850;10.454;2023-07-31T12:45:25;22.20;99.90
19799;DHT22;10059;59.850;10.454;2023-07-31T12:47:52;22.30;99.90
19799;DHT22;10059;59.850;10.454;2023-07-31T12:50:19;22.40;99.90
19799;DHT22;10059;59.850;10.454;2023-07-31T12:52:46;22.10;99.90
19799;DHT22;10059;59.850;10.454;2023-07-31T12:55:13;22.10;99.90
19799;DHT22;10059;59.850;10.454;2023-07-31T12:57:40;22.40;99.90
19799;DHT22;10059;59.850;10.454;2023-07-31T13:00:08;22.90;99.90
19799;DHT22;10059;59.850;10.454;2023-07-31T13:02:36;23.40;99.90
19799;DHT22;10059;59.850;10.454;2023-07-31T13:05:04;23.50;99.90
19799;DHT22;10059;59.850;10.454;2023-07-31T13:07:31;23.90;99.90
19799;DHT22;10059;59.850;10.454;2023-07-31T13:09:58;23.60;99.90
19799;DHT22;10059;59.850;10.454;2023-07-31T13:12:24;23.70;99.90
19799;DHT22;10059;59.850;10.454;2023-07-31T13:14:51;23.30;99.90
19799;DHT22;10059;59.850;10.454;2023-07-31T13:17:18;23.00;99.90
19799;DHT22;10059;59.850;10.454;2023-07-31T13:19:46;22.70;99.90
19799;DHT22;10059;59.850;10.454;2023-07-31T13:22:13;22.30;99.90
19799;DHT22;10059;59.850;10.454;2023-07-31T13:24:40;22.50;99.90
19799;DHT22;10059;59.850;10.454;2023-07-31T13:27:07;22.80;99.90
19799;DHT22;10059;59.850;10.454;2023-07-31T13:29:34;22.70;99.90
19799;DHT22;10059;59.850;10.454;2023-07-31T13:32:00;22.00;99.90
19799;DHT22;10059;59.850;10.454;2023-07-31T13:34:27;21.30;99.90
19799;DHT22;10059;59.850;10.454;2023-07-31T13:36:55;21.20;99.90
19799;DHT22;10059;59.850;10.454;2023-07-31T13:39:22;21.60;99.90
19799;DHT22;10059;59.850;10.454;2023-07-31T13:41:49;21.90;99.90
19799;DHT22;10059;59.850;10.454;2023-07-31T13:44:16;22.10;99.90
19799;DHT22;10059;59.850;10.454;2023-07-31T13:46:42;22.50;99.90
19799;DHT22;10059;59.850;10.454;2023-07-31T13:49:09;22.20;99.90
19799;DHT22;10059;59.850;10.454;2023-07-31T13:51:36;22.00;99.90
19799;DHT22;10059;59.850;10.454;2023-07-31T13:54:06;22.30;99.90
19799;DHT22;10059;59.850;10.454;2023-07-31T13:56:33;22.10;99.90
19799;DHT22;10059;59.850;10.454;2023-07-31T13:59:00;22.40;99.90
19799;DHT22;10059;59.850;10.454;2023-07-31T14:01:27;22.40;99.90
19799;DHT22;10059;59.850;10.454;2023-07-31T14:03:54;22.10;99.90
19799;DHT22;10059;59.850;10.454;2023-07-31T14:06:21;21.50;99.90
19799;DHT22;10059;59.850;10.454;2023-07-31T14:08:48;21.10;99.90
19799;DHT22;10059;59.850;10.454;2023-07-31T14:11:16;21.10;99.90
19799;DHT22;10059;59.850;10.454;2023-07-31T14:13:43;21.30;99.90
19799;DHT22;10059;59.850;10.454;2023-07-31T14:16:10;21.00;99.90
19799;DHT22;10059;59.850;10.454;2023-07-31T14:18:36;20.80;99.90
19799;DHT22;10059;59.850;10.454;2023-07-31T14:21:03;20.80;99.90
19799;DHT22;10059;59.850;10.454;2023-07-31T14:23:30;20.80;99.90
19799;DHT22;10059;59.850;10.454;2023-07-31T14:25:57;20.70;99.90
19799;DHT22;10059;59.850;10.454;2023-07-31T14:28:25;20.60;99.90
19799;DHT22;10059;59.850;10.454;2023-07-31T14:30:52;20.70;99.90
19799;DHT22;10059;59.850;10.454;2023-07-31T14:33:19;21.10;99.90
19799;DHT22;10059;59.850;10.454;2023-07-31T14:35:45;21.50;99.90
19799;DHT22;10059;59.850;10.454;2023-07-31T14:38:12;21.50;99.90
19799;DHT22;10059;59.850;10.454;2023-07-31T14:40:39;21.50;99.90
19799;DHT22;10059;59.850;10.454;2023-07-31T14:43:06;21.60;99.90
19799;DHT22;10059;59.850;10.454;2023-07-31T14:45:34;21.40;99.90
19799;DHT22;10059;59.850;10.454;2023-07-31T14:48:01;21.70;99.90
19799;DHT22;10059;59.850;10.454;2023-07-31T14:50:28;21.50;99.90
19799;DHT22;10059;59.850;10.454;2023-07-31T14:52:55;21.60;99.90
19799;DHT22;10059;59.850;10.454;2023-07-31T14:55:22;21.80;99.90
19799;DHT22;10059;59.850;10.454;2023-07-31T14:57:49;21.70;99.90
19799;DHT22;10059;59.850;10.454;2023-07-31T15:00:16;21.90;99.90
19799;DHT22;10059;59.850;10.454;2023-07-31T15:02:44;22.20;99.90
19799;DHT22;10059;59.850;10.454;2023-07-31T15:05:11;22.10;99.90
19799;DHT22;10059;59.850;10.454;2023-07-31T15:07:37;22.10;99.90
19799;DHT22;10059;59.850;10.454;2023-07-31T15:10:06;22.20;99.90
19799;DHT22;10059;59.850;10.454;2023-07-31T15:12:33;22.00;99.90
19799;DHT22;10059;59.850;10.454;2023-07-31T15:14:59;21.80;99.90
19799;DHT22;10059;59.850;10.454;2023-07-31T15:17:26;21.60;99.90
19799;DHT22;10059;59.850;10.454;2023-07-31T15:19:56;21.50;99.90